createdAt,value
2023-02-07T00:00:21.299Z,3.55
2023-02-07T00:02:48.729Z,3.80
2023-02-07T00:05:15.723Z,3.90
2023-02-07T00:07:42.341Z,4.72
2023-02-07T00:10:09.199Z,5.15
2023-02-07T00:12:35.854Z,5.45
2023-02-07T00:15:02.536Z,4.95
2023-02-07T00:17:29.509Z,5.53
2023-02-07T00:19:56.213Z,5.57
2023-02-07T00:22:22.851Z,5.85
2023-02-07T00:24:49.529Z,6.18
2023-02-07T00:27:16.198Z,5.93
2023-02-07T00:29:42.839Z,6.88
2023-02-07T00:32:09.532Z,7.22
2023-02-07T00:34:36.320Z,6.40
2023-02-07T00:37:04.764Z,6.07
2023-02-07T00:39:31.530Z,5.65
2023-02-07T00:41:58.314Z,6.93
2023-02-07T00:44:24.951Z,6.25
2023-02-07T00:46:51.616Z,7.25
2023-02-07T00:49:18.397Z,6.90
2023-02-07T00:51:48.091Z,6.88
2023-02-07T00:54:14.731Z,6.78
2023-02-07T00:56:41.395Z,7.13
2023-02-07T00:59:08.030Z,6.65
2023-02-07T01:01:34.914Z,5.72
2023-02-07T01:04:01.735Z,6.65
2023-02-07T01:06:29.441Z,6.10
2023-02-07T01:08:58.022Z,7.65
2023-02-07T01:11:24.712Z,6.07
2023-02-07T01:13:51.353Z,6.40
2023-02-07T01:16:25.792Z,7.00
2023-02-07T01:18:52.478Z,6.97
2023-02-07T01:21:21.200Z,8.02
2023-02-07T01:23:47.912Z,7.32
2023-02-07T01:26:14.613Z,6.95
2023-02-07T01:28:41.398Z,7.93
2023-02-07T01:31:11.900Z,8.43
2023-02-07T01:33:38.648Z,8.55
2023-02-07T01:36:09.701Z,8.18
2023-02-07T01:38:36.344Z,9.05
2023-02-07T01:41:03.100Z,7.97
2023-02-07T01:43:30.020Z,8.30
2023-02-07T01:45:56.648Z,8.52
2023-02-07T01:48:34.482Z,8.63
2023-02-07T01:51:04.134Z,8.90
2023-02-07T01:53:30.787Z,8.25
2023-02-07T01:56:01.067Z,7.70
2023-02-07T01:58:27.932Z,8.95
2023-02-07T02:00:54.532Z,7.68
2023-02-07T02:03:21.174Z,8.13
2023-02-07T02:05:47.927Z,8.15
2023-02-07T02:08:14.588Z,8.88
2023-02-07T02:11:09.348Z,8.80
2023-02-07T02:13:49.679Z,9.77
2023-02-07T02:16:22.370Z,9.52
2023-02-07T02:19:05.344Z,10.80
2023-02-07T02:21:56.832Z,9.35
2023-02-07T02:24:29.257Z,9.70
2023-02-07T02:27:20.880Z,8.60
2023-02-07T02:30:18.249Z,9.35
2023-02-07T02:32:57.028Z,9.25
2023-02-07T02:35:34.057Z,9.88
2023-02-07T02:38:09.502Z,10.18
2023-02-07T02:40:54.561Z,10.50
2023-02-07T02:43:33.062Z,10.40
2023-02-07T02:46:03.465Z,10.75
2023-02-07T02:48:30.220Z,10.38
2023-02-07T02:50:56.860Z,9.80
2023-02-07T02:53:23.559Z,10.23
2023-02-07T02:56:28.187Z,10.65
2023-02-07T02:59:13.047Z,9.25
2023-02-07T03:01:47.581Z,10.43
2023-02-07T03:04:18.382Z,11.05
2023-02-07T03:06:55.706Z,11.07
2023-02-07T03:09:37.749Z,10.65
2023-02-07T03:12:10.776Z,10.50
2023-02-07T03:14:45.804Z,11.85
2023-02-07T03:17:26.342Z,10.15
2023-02-07T03:20:16.321Z,10.38
2023-02-07T03:22:43.000Z,10.35
2023-02-07T03:25:09.630Z,10.30
2023-02-07T03:27:36.272Z,10.73
2023-02-07T03:30:05.666Z,11.20
2023-02-07T03:32:35.005Z,10.93
2023-02-07T03:35:23.081Z,11.10
2023-02-07T03:37:57.018Z,10.98
2023-02-07T03:42:53.921Z,10.45
2023-02-07T03:45:21.171Z,11.52
2023-02-07T03:47:48.145Z,11.23
2023-02-07T03:50:15.570Z,11.93
2023-02-07T03:52:42.319Z,10.95
2023-02-07T03:55:09.919Z,11.45
2023-02-07T03:57:36.683Z,11.05
2023-02-07T04:00:04.427Z,11.88
2023-02-07T04:02:31.124Z,10.43
2023-02-07T04:04:57.728Z,10.80
2023-02-07T04:07:24.328Z,11.55
2023-02-07T04:09:51.253Z,11.15
2023-02-07T04:12:17.850Z,11.65
2023-02-07T04:14:44.491Z,11.52
2023-02-07T04:17:11.169Z,11.88
2023-02-07T04:19:37.806Z,11.30
2023-02-07T04:22:04.432Z,11.35
2023-02-07T04:24:32.429Z,12.50
2023-02-07T04:26:59.453Z,12.70
2023-02-07T04:29:26.102Z,12.52
2023-02-07T04:31:52.822Z,12.05
2023-02-07T04:34:19.586Z,11.43
2023-02-07T04:36:46.354Z,11.88
2023-02-07T04:39:13.093Z,13.35
2023-02-07T04:41:39.788Z,13.82
2023-02-07T04:44:06.467Z,12.38
2023-02-07T04:46:33.079Z,12.55
2023-02-07T04:48:59.895Z,13.57
2023-02-07T04:51:26.511Z,12.90
2023-02-07T04:53:53.130Z,13.13
2023-02-07T04:56:19.746Z,12.48
2023-02-07T04:58:46.382Z,12.77
2023-02-07T05:01:13.103Z,13.35
2023-02-07T05:03:39.826Z,12.82
2023-02-07T05:06:06.640Z,13.77
2023-02-07T05:08:33.440Z,14.13
2023-02-07T05:11:00.226Z,13.75
2023-02-07T05:13:26.894Z,13.35
2023-02-07T05:15:53.569Z,14.48
2023-02-07T05:18:20.980Z,14.57
2023-02-07T05:20:47.836Z,14.18
2023-02-07T05:23:14.755Z,13.93
2023-02-07T05:25:42.368Z,13.02
2023-02-07T05:28:09.365Z,13.13
2023-02-07T05:30:36.551Z,14.45
2023-02-07T05:33:06.012Z,15.38
2023-02-07T05:35:38.198Z,14.32
2023-02-07T05:38:07.479Z,14.35
2023-02-07T05:40:40.839Z,13.13
2023-02-07T05:43:07.531Z,14.65
2023-02-07T05:45:34.317Z,13.95
2023-02-07T05:48:01.190Z,14.27
2023-02-07T05:50:27.884Z,15.30
2023-02-07T05:52:54.597Z,14.93
2023-02-07T05:55:21.347Z,14.07
2023-02-07T05:57:47.980Z,13.52
2023-02-07T06:00:16.502Z,13.70
2023-02-07T06:02:43.632Z,14.35
2023-02-07T06:05:12.629Z,13.57
2023-02-07T06:07:40.086Z,13.73
2023-02-07T06:10:07.209Z,14.73
2023-02-07T06:12:34.198Z,14.63
2023-02-07T06:15:01.004Z,14.23
2023-02-07T06:17:27.745Z,13.20
2023-02-07T06:19:54.386Z,14.52
2023-02-07T06:22:21.073Z,14.45
2023-02-07T06:24:47.781Z,15.70
2023-02-07T06:27:14.468Z,14.65
2023-02-07T06:29:42.229Z,15.88
2023-02-07T06:32:08.877Z,15.60
2023-02-07T06:34:35.770Z,15.30
2023-02-07T06:37:02.607Z,14.82
2023-02-07T06:39:29.441Z,15.23
2023-02-07T06:41:56.113Z,16.35
2023-02-07T06:44:22.931Z,16.05
2023-02-07T06:46:49.561Z,16.65
2023-02-07T06:49:16.253Z,16.73
2023-02-07T06:51:42.979Z,22.73
2023-02-07T06:54:10.418Z,21.13
2023-02-07T06:56:37.697Z,21.98
2023-02-07T06:59:04.441Z,19.88
2023-02-07T07:01:31.383Z,20.73
2023-02-07T07:03:58.029Z,19.80
2023-02-07T07:06:24.904Z,17.67
2023-02-07T07:08:51.782Z,17.85
2023-02-07T07:11:18.907Z,19.90
2023-02-07T07:13:45.979Z,20.40
2023-02-07T07:16:12.665Z,24.73
2023-02-07T07:18:39.343Z,41.53
2023-02-07T07:21:06.419Z,32.13
2023-02-07T07:23:33.233Z,28.80
2023-02-07T07:25:59.998Z,21.67
2023-02-07T07:28:26.644Z,19.27
2023-02-07T07:30:53.443Z,18.80
2023-02-07T07:33:20.204Z,17.33
2023-02-07T07:35:46.887Z,15.95
2023-02-07T07:38:13.603Z,16.15
2023-02-07T07:40:40.556Z,15.52
2023-02-07T07:43:07.363Z,16.98
2023-02-07T07:45:34.036Z,16.52
2023-02-07T07:48:00.707Z,16.20
2023-02-07T07:50:27.468Z,15.93
2023-02-07T07:52:54.091Z,15.32
2023-02-07T07:55:20.728Z,16.80
2023-02-07T07:57:47.371Z,15.80
2023-02-07T08:00:14.436Z,15.73
2023-02-07T08:02:41.937Z,15.02
2023-02-07T08:05:09.049Z,15.40
2023-02-07T08:07:35.713Z,14.57
2023-02-07T08:10:02.436Z,14.90
2023-02-07T08:12:29.046Z,14.75
2023-02-07T08:14:55.702Z,14.85
2023-02-07T08:17:22.323Z,14.27
2023-02-07T08:19:48.996Z,15.15
2023-02-07T08:22:16.004Z,13.65
2023-02-07T08:24:42.866Z,14.60
2023-02-07T08:27:09.734Z,14.27
2023-02-07T08:29:36.632Z,14.13
2023-02-07T08:32:03.870Z,15.13
2023-02-07T08:34:37.079Z,16.00
2023-02-07T08:37:07.818Z,16.17
2023-02-07T08:39:35.377Z,15.45
2023-02-07T08:42:02.656Z,15.85
2023-02-07T08:44:29.374Z,16.80
2023-02-07T08:46:55.990Z,17.33
2023-02-07T08:49:22.640Z,16.75
2023-02-07T08:51:49.312Z,16.08
2023-02-07T08:54:16.003Z,16.83
2023-02-07T08:56:42.739Z,16.05
2023-02-07T08:59:09.438Z,16.67
2023-02-07T09:01:36.217Z,15.88
2023-02-07T09:04:02.888Z,15.38
2023-02-07T09:06:29.506Z,16.27
2023-02-07T09:08:56.147Z,15.18
2023-02-07T09:11:23.307Z,14.98
2023-02-07T09:13:50.328Z,16.17
2023-02-07T09:16:17.162Z,16.10
2023-02-07T09:18:43.954Z,16.05
2023-02-07T09:21:10.573Z,15.85
2023-02-07T09:23:37.218Z,16.20
2023-02-07T09:26:05.009Z,15.48
2023-02-07T09:28:31.853Z,16.42
2023-02-07T09:30:58.648Z,15.43
2023-02-07T09:33:25.406Z,15.38
2023-02-07T09:35:52.273Z,16.27
2023-02-07T09:38:21.016Z,14.80
2023-02-07T09:40:49.200Z,13.63
2023-02-07T09:43:36.413Z,15.10
2023-02-07T09:46:17.545Z,15.40
2023-02-07T09:49:04.554Z,14.75
2023-02-07T09:51:31.486Z,15.30
2023-02-07T09:54:00.333Z,14.80
2023-02-07T09:56:27.613Z,15.15
2023-02-07T09:59:09.669Z,14.77
2023-02-07T10:01:58.106Z,16.75
2023-02-07T10:04:29.236Z,19.17
2023-02-07T10:06:57.258Z,15.50
2023-02-07T10:09:41.191Z,15.20
2023-02-07T10:12:13.421Z,15.75
2023-02-07T10:14:51.280Z,14.05
2023-02-07T10:17:39.757Z,13.98
2023-02-07T10:20:19.457Z,14.35
2023-02-07T10:23:08.805Z,13.10
2023-02-07T10:26:03.752Z,13.70
2023-02-07T10:28:58.406Z,15.02
2023-02-07T10:31:25.780Z,15.32
2023-02-07T10:33:58.334Z,15.02
2023-02-07T10:36:25.252Z,15.40
2023-02-07T10:39:09.554Z,14.07
2023-02-07T10:41:38.236Z,15.30
2023-02-07T10:44:06.590Z,15.25
2023-02-07T10:46:34.771Z,14.38
2023-02-07T10:49:02.013Z,14.32
2023-02-07T10:51:38.974Z,15.48
2023-02-07T10:54:13.156Z,13.80
2023-02-07T10:59:33.540Z,14.40
2023-02-07T11:02:00.524Z,12.82
2023-02-07T11:04:38.165Z,13.55
2023-02-07T11:07:06.205Z,14.15
2023-02-07T11:09:37.340Z,13.95
2023-02-07T11:12:17.929Z,15.07
2023-02-07T11:15:01.308Z,14.07
2023-02-07T11:17:28.015Z,10.23
2023-02-07T11:19:54.673Z,11.52
2023-02-07T11:22:22.191Z,11.70
2023-02-07T11:24:48.933Z,11.00
2023-02-07T11:27:16.945Z,10.88
2023-02-07T11:29:53.699Z,11.15
2023-02-07T11:32:20.686Z,11.40
2023-02-07T11:34:52.443Z,12.27
2023-02-07T11:37:33.119Z,12.10
2023-02-07T11:40:19.871Z,11.43
2023-02-07T11:43:03.636Z,10.50
2023-02-07T11:45:31.880Z,11.57
2023-02-07T11:47:58.527Z,12.07
2023-02-07T11:50:29.812Z,12.40
2023-02-07T11:52:58.796Z,12.30
2023-02-07T11:55:31.310Z,12.85
2023-02-07T11:57:58.368Z,13.05
2023-02-07T12:00:26.789Z,13.88
2023-02-07T12:03:03.820Z,12.98
2023-02-07T12:05:34.317Z,12.95
2023-02-07T12:08:03.926Z,13.00
2023-02-07T12:10:35.389Z,12.27
2023-02-07T12:13:07.870Z,11.73
2023-02-07T12:15:53.636Z,11.77
2023-02-07T12:18:29.759Z,11.80
2023-02-07T12:21:19.661Z,10.88
2023-02-07T12:23:49.143Z,10.27
2023-02-07T12:26:26.302Z,9.85
2023-02-07T12:29:34.589Z,9.73
2023-02-07T12:32:29.274Z,8.75
2023-02-07T12:34:58.900Z,9.93
2023-02-07T12:37:28.104Z,9.65
2023-02-07T12:40:34.957Z,9.18
2023-02-07T12:43:31.339Z,8.70
2023-02-07T12:46:01.066Z,8.68
2023-02-07T12:49:03.262Z,8.90
2023-02-07T12:51:55.932Z,9.60
2023-02-07T12:54:52.254Z,8.20
2023-02-07T12:57:48.480Z,9.18
2023-02-07T13:00:56.771Z,7.85
2023-02-07T13:03:29.264Z,7.50
2023-02-07T13:06:04.863Z,8.00
2023-02-07T13:09:09.586Z,9.27
2023-02-07T13:12:04.409Z,8.07
2023-02-07T13:17:24.235Z,8.55
2023-02-07T13:20:21.238Z,9.98
2023-02-07T13:22:57.161Z,9.55
2023-02-07T13:25:28.872Z,9.32
2023-02-07T13:27:57.272Z,9.40
2023-02-07T13:30:23.981Z,10.10
2023-02-07T13:32:50.646Z,10.75
2023-02-07T13:35:22.449Z,10.98
2023-02-07T13:38:16.752Z,9.82
2023-02-07T13:40:52.908Z,9.90
2023-02-07T13:43:28.711Z,9.43
2023-02-07T13:46:08.884Z,9.00
2023-02-07T13:48:45.305Z,11.07
2023-02-07T13:51:29.050Z,9.68
2023-02-07T13:54:20.345Z,10.25
2023-02-07T13:57:16.065Z,9.00
2023-02-07T13:59:42.815Z,8.57
2023-02-07T14:02:17.947Z,8.77
2023-02-07T14:04:55.892Z,9.00
2023-02-07T14:07:32.109Z,8.77
2023-02-07T14:09:59.118Z,8.55
2023-02-07T14:12:27.621Z,9.60
2023-02-07T14:15:02.749Z,9.27
2023-02-07T14:17:30.105Z,9.63
2023-02-07T14:20:00.653Z,9.38
2023-02-07T14:22:42.212Z,7.45
2023-02-07T14:25:19.250Z,7.00
2023-02-07T14:27:51.994Z,7.65
2023-02-07T14:30:22.729Z,7.97
2023-02-07T14:33:14.469Z,8.60
2023-02-07T14:36:05.011Z,5.90
2023-02-07T14:38:59.470Z,8.55
2023-02-07T14:41:30.798Z,8.07
2023-02-07T14:44:08.747Z,6.65
2023-02-07T14:46:41.329Z,7.07
2023-02-07T14:49:18.487Z,6.40
2023-02-07T14:51:47.645Z,5.63
2023-02-07T14:54:22.291Z,5.38
2023-02-07T14:57:26.750Z,5.70
2023-02-07T15:00:05.589Z,7.38
2023-02-07T15:02:48.358Z,5.65
2023-02-07T15:05:19.798Z,5.22
2023-02-07T15:07:47.252Z,5.55
2023-02-07T15:10:27.568Z,6.22
2023-02-07T15:12:54.423Z,6.05
2023-02-07T15:15:26.169Z,6.10
2023-02-07T15:17:53.721Z,5.72
2023-02-07T15:20:23.502Z,5.68
2023-02-07T15:22:50.457Z,5.63
2023-02-07T15:25:17.255Z,5.78
2023-02-07T15:27:43.895Z,5.95
2023-02-07T15:30:18.293Z,6.10
2023-02-07T15:32:47.620Z,7.05
2023-02-07T15:35:22.096Z,5.78
2023-02-07T15:37:49.080Z,6.38
2023-02-07T15:40:18.182Z,6.38
2023-02-07T15:42:56.391Z,6.07
2023-02-07T15:45:25.299Z,5.70
2023-02-07T15:48:02.792Z,9.82
2023-02-07T15:50:30.123Z,7.05
2023-02-07T15:53:02.114Z,6.90
2023-02-07T15:55:37.819Z,6.47
2023-02-07T15:58:05.142Z,6.60
2023-02-07T16:00:36.241Z,6.47
2023-02-07T16:03:07.744Z,7.50
2023-02-07T16:05:38.531Z,7.50
2023-02-07T16:08:06.677Z,7.30
2023-02-07T16:10:38.799Z,8.35
2023-02-07T16:13:14.758Z,8.70
2023-02-07T16:15:56.137Z,8.80
2023-02-07T16:18:45.383Z,8.82
2023-02-07T16:21:22.349Z,8.18
2023-02-07T16:23:49.899Z,8.32
2023-02-07T16:26:25.176Z,7.38
2023-02-07T16:28:51.816Z,8.32
2023-02-07T16:31:18.535Z,8.63
2023-02-07T16:33:45.519Z,8.57
2023-02-07T16:36:16.260Z,8.02
2023-02-07T16:38:43.353Z,8.05
2023-02-07T16:41:21.827Z,8.48
2023-02-07T16:43:48.469Z,8.05
2023-02-07T16:46:15.247Z,11.88
2023-02-07T16:48:41.979Z,9.18
2023-02-07T16:51:08.617Z,10.18
2023-02-07T16:53:35.244Z,11.63
2023-02-07T16:56:01.872Z,9.35
2023-02-07T16:58:30.823Z,7.30
2023-02-07T17:00:57.513Z,11.95
2023-02-07T17:03:24.252Z,10.65
2023-02-07T17:05:50.972Z,9.77
2023-02-07T17:08:22.881Z,8.65
2023-02-07T17:10:57.727Z,8.20
2023-02-07T17:13:24.386Z,8.75
2023-02-07T17:15:51.039Z,8.40
2023-02-07T17:18:17.660Z,8.25
2023-02-07T17:20:44.312Z,7.97
2023-02-07T17:23:11.011Z,8.20
2023-02-07T17:25:37.682Z,8.23
2023-02-07T17:28:04.729Z,7.63
2023-02-07T17:30:39.547Z,8.25
2023-02-07T17:33:06.987Z,14.13
2023-02-07T17:35:34.197Z,12.77
2023-02-07T17:38:00.998Z,12.18
2023-02-07T17:40:32.758Z,15.07
2023-02-07T17:42:59.504Z,10.02
2023-02-07T17:45:26.813Z,8.55
2023-02-07T17:47:56.329Z,8.52
2023-02-07T17:50:25.315Z,8.85
2023-02-07T17:52:52.015Z,8.93
2023-02-07T17:55:18.663Z,9.50
2023-02-07T17:57:45.381Z,13.63
2023-02-07T18:00:21.944Z,9.88
2023-02-07T18:02:48.695Z,9.82
2023-02-07T18:05:15.848Z,9.65
2023-02-07T18:07:43.165Z,10.02
2023-02-07T18:10:11.017Z,10.10
2023-02-07T18:12:37.984Z,9.93
2023-02-07T18:15:05.059Z,10.13
2023-02-07T18:17:32.732Z,9.55
2023-02-07T18:19:59.342Z,9.70
2023-02-07T18:22:25.944Z,10.43
2023-02-07T18:24:52.620Z,10.80
2023-02-07T18:27:19.355Z,11.60
2023-02-07T18:29:46.481Z,11.05
2023-02-07T18:32:13.154Z,10.00
2023-02-07T18:34:40.262Z,28.90
2023-02-07T18:37:09.573Z,26.23
2023-02-07T18:39:36.257Z,17.27
2023-02-07T18:42:07.067Z,14.52
2023-02-07T18:44:33.723Z,21.42
2023-02-07T18:47:00.494Z,16.73
2023-02-07T18:49:28.299Z,16.33
2023-02-07T18:51:56.108Z,12.57
2023-02-07T18:54:22.794Z,12.77
2023-02-07T18:56:52.639Z,12.30
2023-02-07T18:59:20.669Z,15.18
2023-02-07T19:01:48.364Z,12.38
2023-02-07T19:04:21.596Z,13.98
2023-02-07T19:06:51.695Z,14.00
2023-02-07T19:09:19.177Z,17.17
2023-02-07T19:11:45.799Z,24.55
2023-02-07T19:14:13.585Z,22.85
2023-02-07T19:16:40.344Z,20.30
2023-02-07T19:19:07.296Z,21.08
2023-02-07T19:21:34.031Z,19.90
2023-02-07T19:24:00.686Z,18.92
2023-02-07T19:26:27.487Z,17.20
2023-02-07T19:28:54.262Z,17.40
2023-02-07T19:31:21.182Z,18.50
2023-02-07T19:33:48.927Z,17.85
2023-02-07T19:36:16.486Z,17.92
2023-02-07T19:38:43.232Z,17.55
2023-02-07T19:41:09.854Z,13.25
2023-02-07T19:43:36.615Z,14.27
2023-02-07T19:46:03.486Z,11.80
2023-02-07T19:48:30.194Z,13.75
2023-02-07T19:51:01.396Z,14.32
2023-02-07T19:53:28.640Z,20.70
2023-02-07T19:56:03.016Z,18.35
2023-02-07T19:58:30.654Z,29.98
2023-02-07T20:00:57.508Z,18.67
2023-02-07T20:03:24.635Z,17.45
2023-02-07T20:05:51.374Z,19.35
2023-02-07T20:08:18.067Z,19.58
2023-02-07T20:10:46.184Z,22.00
2023-02-07T20:13:12.958Z,23.90
2023-02-07T20:15:46.434Z,17.70
2023-02-07T20:18:13.433Z,17.33
2023-02-07T20:20:44.914Z,18.38
2023-02-07T20:23:12.739Z,17.92
2023-02-07T20:25:39.609Z,16.48
2023-02-07T20:28:06.852Z,16.77
2023-02-07T20:30:33.875Z,15.20
2023-02-07T20:33:00.509Z,12.77
2023-02-07T20:35:27.476Z,11.38
2023-02-07T20:37:54.176Z,12.35
2023-02-07T20:40:20.931Z,11.45
2023-02-07T20:42:47.552Z,12.93
2023-02-07T20:45:14.296Z,11.68
2023-02-07T20:47:41.095Z,13.27
2023-02-07T20:50:07.982Z,12.98
2023-02-07T20:52:37.045Z,13.32
2023-02-07T20:55:08.557Z,13.30
2023-02-07T20:57:35.166Z,13.00
2023-02-07T21:00:01.795Z,13.60
2023-02-07T21:02:28.491Z,15.75
2023-02-07T21:04:55.268Z,16.10
2023-02-07T21:07:21.878Z,14.52
2023-02-07T21:09:48.623Z,12.88
2023-02-07T21:12:15.310Z,13.48
2023-02-07T21:14:42.025Z,13.32
2023-02-07T21:17:08.866Z,13.25
2023-02-07T21:19:36.062Z,14.60
2023-02-07T21:22:02.743Z,13.10
2023-02-07T21:24:29.494Z,13.85
2023-02-07T21:26:56.385Z,13.15
2023-02-07T21:29:23.168Z,13.77
2023-02-07T21:31:49.963Z,13.27
2023-02-07T21:34:20.903Z,14.57
2023-02-07T21:36:48.047Z,13.93
2023-02-07T21:39:14.747Z,13.90
2023-02-07T21:41:42.689Z,16.42
2023-02-07T21:44:09.580Z,17.60
2023-02-07T21:46:37.317Z,18.70
2023-02-07T21:49:05.982Z,15.00
2023-02-07T21:51:33.619Z,14.73
2023-02-07T21:54:00.771Z,17.50
2023-02-07T21:56:32.060Z,15.75
2023-02-07T21:59:03.501Z,14.85
2023-02-07T22:01:30.744Z,13.98
2023-02-07T22:03:59.438Z,14.10
2023-02-07T22:06:26.179Z,14.05
2023-02-07T22:08:54.161Z,17.30
2023-02-07T22:11:21.685Z,18.35
2023-02-07T22:13:48.851Z,17.60
2023-02-07T22:16:16.503Z,17.75
2023-02-07T22:18:43.516Z,16.83
2023-02-07T22:21:15.307Z,15.88
2023-02-07T22:23:42.180Z,16.27
2023-02-07T22:26:08.896Z,16.27
2023-02-07T22:28:37.345Z,16.52
2023-02-07T22:31:09.576Z,20.02
2023-02-07T22:33:36.339Z,20.25
2023-02-07T22:36:03.265Z,14.57
2023-02-07T22:38:29.933Z,13.70
2023-02-07T22:40:59.599Z,16.15
2023-02-07T22:43:26.277Z,15.10
2023-02-07T22:45:52.957Z,14.38
2023-02-07T22:48:19.592Z,13.77
2023-02-07T22:50:46.230Z,14.23
2023-02-07T22:53:12.914Z,13.55
2023-02-07T22:55:40.101Z,13.40
2023-02-07T22:58:07.006Z,14.20
2023-02-07T23:00:33.714Z,14.25
2023-02-07T23:03:00.915Z,15.05
2023-02-07T23:05:27.623Z,14.07
2023-02-07T23:07:54.270Z,14.05
2023-02-07T23:10:20.990Z,13.95
2023-02-07T23:12:47.675Z,14.00
2023-02-07T23:15:14.340Z,13.15
2023-02-07T23:17:41.613Z,14.10
2023-02-07T23:20:08.528Z,14.32
2023-02-07T23:22:38.515Z,14.98
2023-02-07T23:25:06.121Z,14.68
2023-02-07T23:27:32.845Z,14.35
2023-02-07T23:29:59.472Z,14.35
2023-02-07T23:32:26.110Z,14.25
2023-02-07T23:34:52.750Z,14.25
2023-02-07T23:37:22.276Z,13.70
2023-02-07T23:39:49.005Z,13.23
2023-02-07T23:42:15.683Z,13.35
2023-02-07T23:44:42.326Z,14.52
2023-02-07T23:47:08.961Z,14.07
2023-02-07T23:49:35.610Z,12.57
2023-02-07T23:52:02.246Z,13.55
2023-02-07T23:54:28.906Z,13.82
2023-02-07T23:56:55.549Z,13.50
2023-02-07T23:59:22.181Z,13.23
